Terminal Aerodrome Forecast
Issued by NWS

Home | Current Version | Previous Version | Text Only | Print | Product List | Glossary On
Versions: 1 2 3 4 5 6 7 8 9 10 11 12 13 14 15 16
000
FTUS43 KIWX 311435 AAA
TAFSBN
TAF AMD
KSBN 311435Z 3115/0112 00000KT 1SM BR BKN004
      TEMPO 3115/3116 3SM BR SCT005
     FM311600 22005KT P6SM BKN020
     FM311900 23006KT P6SM SCT030
     FM010700 21003KT 3SM BR SKC=

USA.gov is the U.S. government's official web portal to all federal, state and local government web resources and services.